sensor_id;sensor_type;location;lat;lon;timestamp;temperature;humidity
25718;DHT22;13574;52.040;5.692;2022-08-25T00:00:41;27.20;95.80
25718;DHT22;13574;52.040;5.692;2022-08-25T00:03:07;27.20;95.60
25718;DHT22;13574;52.040;5.692;2022-08-25T00:05:33;27.10;95.80
25718;DHT22;13574;52.040;5.692;2022-08-25T00:08:00;26.90;95.90
25718;DHT22;13574;52.040;5.692;2022-08-25T00:10:26;27.00;95.80
25718;DHT22;13574;52.040;5.692;2022-08-25T00:12:52;27.10;95.70
25718;DHT22;13574;52.040;5.692;2022-08-25T00:15:17;27.00;95.90
25718;DHT22;13574;52.040;5.692;2022-08-25T00:17:43;27.00;95.80
25718;DHT22;13574;52.040;5.692;2022-08-25T00:20:09;26.90;95.90
25718;DHT22;13574;52.040;5.692;2022-08-25T00:22:35;26.80;96.10
25718;DHT22;13574;52.040;5.692;2022-08-25T00:25:01;26.80;96.20
25718;DHT22;13574;52.040;5.692;2022-08-25T00:27:26;26.80;96.30
25718;DHT22;13574;52.040;5.692;2022-08-25T00:29:52;26.70;96.30
25718;DHT22;13574;52.040;5.692;2022-08-25T00:32:18;26.60;96.50
25718;DHT22;13574;52.040;5.692;2022-08-25T00:34:45;26.50;96.40
25718;DHT22;13574;52.040;5.692;2022-08-25T00:37:10;26.50;96.40
25718;DHT22;13574;52.040;5.692;2022-08-25T00:39:37;26.60;96.30
25718;DHT22;13574;52.040;5.692;2022-08-25T00:42:04;26.60;96.40
25718;DHT22;13574;52.040;5.692;2022-08-25T00:44:31;26.60;96.20
25718;DHT22;13574;52.040;5.692;2022-08-25T00:46:59;26.60;96.20
25718;DHT22;13574;52.040;5.692;2022-08-25T00:49:48;26.70;96.10
25718;DHT22;13574;52.040;5.692;2022-08-25T00:52:26;26.40;96.20
25718;DHT22;13574;52.040;5.692;2022-08-25T00:55:01;26.30;96.50
25718;DHT22;13574;52.040;5.692;2022-08-25T00:57:35;26.30;96.50
25718;DHT22;13574;52.040;5.692;2022-08-25T01:00:13;26.20;96.40
25718;DHT22;13574;52.040;5.692;2022-08-25T01:02:39;26.30;96.60
25718;DHT22;13574;52.040;5.692;2022-08-25T01:05:05;26.30;96.50
25718;DHT22;13574;52.040;5.692;2022-08-25T01:07:31;26.40;96.20
25718;DHT22;13574;52.040;5.692;2022-08-25T01:09:57;26.30;95.90
25718;DHT22;13574;52.040;5.692;2022-08-25T01:12:24;26.30;95.80
25718;DHT22;13574;52.040;5.692;2022-08-25T01:14:51;26.30;95.70
25718;DHT22;13574;52.040;5.692;2022-08-25T01:17:17;26.30;95.60
25718;DHT22;13574;52.040;5.692;2022-08-25T01:19:45;26.30;95.50
25718;DHT22;13574;52.040;5.692;2022-08-25T01:22:10;26.30;95.30
25718;DHT22;13574;52.040;5.692;2022-08-25T01:25:01;26.40;95.10
25718;DHT22;13574;52.040;5.692;2022-08-25T01:27:29;26.30;95.20
25718;DHT22;13574;52.040;5.692;2022-08-25T01:29:55;26.20;95.00
25718;DHT22;13574;52.040;5.692;2022-08-25T01:32:22;26.00;95.20
25718;DHT22;13574;52.040;5.692;2022-08-25T01:34:48;26.10;95.10
25718;DHT22;13574;52.040;5.692;2022-08-25T01:37:15;25.90;95.10
25718;DHT22;13574;52.040;5.692;2022-08-25T01:39:43;26.10;95.10
25718;DHT22;13574;52.040;5.692;2022-08-25T01:44:44;26.10;95.20
25718;DHT22;13574;52.040;5.692;2022-08-25T01:47:11;26.10;94.90
25718;DHT22;13574;52.040;5.692;2022-08-25T01:49:37;26.00;95.00
25718;DHT22;13574;52.040;5.692;2022-08-25T01:54:37;26.10;94.80
25718;DHT22;13574;52.040;5.692;2022-08-25T01:57:03;26.00;94.80
25718;DHT22;13574;52.040;5.692;2022-08-25T01:59:29;26.20;94.30
25718;DHT22;13574;52.040;5.692;2022-08-25T02:01:54;26.10;94.30
25718;DHT22;13574;52.040;5.692;2022-08-25T02:04:20;26.10;94.10
25718;DHT22;13574;52.040;5.692;2022-08-25T02:06:46;26.10;94.10
25718;DHT22;13574;52.040;5.692;2022-08-25T02:09:14;26.20;93.70
25718;DHT22;13574;52.040;5.692;2022-08-25T02:11:42;26.10;93.90
25718;DHT22;13574;52.040;5.692;2022-08-25T02:14:10;26.10;93.80
25718;DHT22;13574;52.040;5.692;2022-08-25T02:16:38;26.20;93.50
25718;DHT22;13574;52.040;5.692;2022-08-25T02:19:06;26.20;93.40
25718;DHT22;13574;52.040;5.692;2022-08-25T02:21:33;26.10;93.50
25718;DHT22;13574;52.040;5.692;2022-08-25T02:23:59;26.30;93.60
25718;DHT22;13574;52.040;5.692;2022-08-25T02:26:25;26.30;93.10
25718;DHT22;13574;52.040;5.692;2022-08-25T02:28:52;26.20;93.10
25718;DHT22;13574;52.040;5.692;2022-08-25T02:31:20;26.40;92.90
25718;DHT22;13574;52.040;5.692;2022-08-25T02:33:47;26.40;92.60
25718;DHT22;13574;52.040;5.692;2022-08-25T02:36:13;26.30;92.70
25718;DHT22;13574;52.040;5.692;2022-08-25T02:38:39;26.10;92.70
25718;DHT22;13574;52.040;5.692;2022-08-25T02:41:14;26.20;92.40
25718;DHT22;13574;52.040;5.692;2022-08-25T02:43:42;26.10;92.40
25718;DHT22;13574;52.040;5.692;2022-08-25T02:46:09;26.00;92.40
25718;DHT22;13574;52.040;5.692;2022-08-25T02:48:35;25.80;92.50
25718;DHT22;13574;52.040;5.692;2022-08-25T02:51:02;25.90;92.30
25718;DHT22;13574;52.040;5.692;2022-08-25T02:53:28;25.70;92.10
25718;DHT22;13574;52.040;5.692;2022-08-25T02:55:54;25.60;91.80
25718;DHT22;13574;52.040;5.692;2022-08-25T02:58:20;25.70;91.70
25718;DHT22;13574;52.040;5.692;2022-08-25T03:00:47;25.90;91.20
25718;DHT22;13574;52.040;5.692;2022-08-25T03:03:14;26.00;90.90
25718;DHT22;13574;52.040;5.692;2022-08-25T03:05:40;26.10;90.80
25718;DHT22;13574;52.040;5.692;2022-08-25T03:08:07;25.90;90.90
25718;DHT22;13574;52.040;5.692;2022-08-25T03:10:33;25.90;91.00
25718;DHT22;13574;52.040;5.692;2022-08-25T03:12:59;25.80;91.00
25718;DHT22;13574;52.040;5.692;2022-08-25T03:15:25;25.70;90.90
25718;DHT22;13574;52.040;5.692;2022-08-25T03:17:53;25.80;90.80
25718;DHT22;13574;52.040;5.692;2022-08-25T03:20:21;25.70;90.60
25718;DHT22;13574;52.040;5.692;2022-08-25T03:22:48;25.70;90.50
25718;DHT22;13574;52.040;5.692;2022-08-25T03:25:14;25.70;90.40
25718;DHT22;13574;52.040;5.692;2022-08-25T03:27:58;25.90;90.00
25718;DHT22;13574;52.040;5.692;2022-08-25T03:30:25;25.90;89.50
25718;DHT22;13574;52.040;5.692;2022-08-25T03:32:51;25.80;89.30
25718;DHT22;13574;52.040;5.692;2022-08-25T03:35:17;25.80;89.00
25718;DHT22;13574;52.040;5.692;2022-08-25T03:37:43;25.70;88.90
25718;DHT22;13574;52.040;5.692;2022-08-25T03:40:12;25.90;87.30
25718;DHT22;13574;52.040;5.692;2022-08-25T03:42:45;25.80;87.90
25718;DHT22;13574;52.040;5.692;2022-08-25T03:45:12;25.70;88.40
25718;DHT22;13574;52.040;5.692;2022-08-25T03:47:39;25.70;87.80
25718;DHT22;13574;52.040;5.692;2022-08-25T03:50:08;25.80;88.30
25718;DHT22;13574;52.040;5.692;2022-08-25T03:52:35;26.10;87.90
25718;DHT22;13574;52.040;5.692;2022-08-25T03:55:02;26.00;87.60
25718;DHT22;13574;52.040;5.692;2022-08-25T03:57:29;26.10;87.40
25718;DHT22;13574;52.040;5.692;2022-08-25T03:59:54;26.10;87.20
25718;DHT22;13574;52.040;5.692;2022-08-25T04:02:20;25.70;87.50
25718;DHT22;13574;52.040;5.692;2022-08-25T04:04:46;25.80;88.00
25718;DHT22;13574;52.040;5.692;2022-08-25T04:07:11;25.90;87.70
25718;DHT22;13574;52.040;5.692;2022-08-25T04:09:37;25.90;87.50
25718;DHT22;13574;52.040;5.692;2022-08-25T04:12:03;25.90;87.30
25718;DHT22;13574;52.040;5.692;2022-08-25T04:14:29;25.80;87.40
25718;DHT22;13574;52.040;5.692;2022-08-25T04:16:55;25.90;87.40
25718;DHT22;13574;52.040;5.692;2022-08-25T04:19:21;26.00;87.60
25718;DHT22;13574;52.040;5.692;2022-08-25T04:21:47;25.90;87.70
25718;DHT22;13574;52.040;5.692;2022-08-25T04:24:13;25.80;87.60
25718;DHT22;13574;52.040;5.692;2022-08-25T04:26:42;25.80;87.50
25718;DHT22;13574;52.040;5.692;2022-08-25T04:29:09;25.80;87.10
25718;DHT22;13574;52.040;5.692;2022-08-25T04:31:38;25.80;87.10
25718;DHT22;13574;52.040;5.692;2022-08-25T04:34:05;25.80;87.10
25718;DHT22;13574;52.040;5.692;2022-08-25T04:36:31;25.80;87.10
25718;DHT22;13574;52.040;5.692;2022-08-25T04:38:57;25.60;87.10
25718;DHT22;13574;52.040;5.692;2022-08-25T04:41:24;25.60;88.20
25718;DHT22;13574;52.040;5.692;2022-08-25T04:43:51;25.60;87.50
25718;DHT22;13574;52.040;5.692;2022-08-25T04:46:21;25.70;87.20
25718;DHT22;13574;52.040;5.692;2022-08-25T04:48:48;25.80;87.10
25718;DHT22;13574;52.040;5.692;2022-08-25T04:51:19;25.90;86.90
25718;DHT22;13574;52.040;5.692;2022-08-25T04:53:47;25.80;87.20
25718;DHT22;13574;52.040;5.692;2022-08-25T04:56:16;25.90;86.80
25718;DHT22;13574;52.040;5.692;2022-08-25T04:58:42;25.90;87.00
25718;DHT22;13574;52.040;5.692;2022-08-25T05:01:11;25.90;87.20
25718;DHT22;13574;52.040;5.692;2022-08-25T05:03:37;25.80;87.40
25718;DHT22;13574;52.040;5.692;2022-08-25T05:06:03;25.80;87.80
25718;DHT22;13574;52.040;5.692;2022-08-25T05:08:30;25.80;87.90
25718;DHT22;13574;52.040;5.692;2022-08-25T05:10:56;25.70;88.00
25718;DHT22;13574;52.040;5.692;2022-08-25T05:13:23;25.60;88.10
25718;DHT22;13574;52.040;5.692;2022-08-25T05:15:57;25.60;88.50
25718;DHT22;13574;52.040;5.692;2022-08-25T05:18:25;25.50;88.30
25718;DHT22;13574;52.040;5.692;2022-08-25T05:20:52;25.40;88.30
25718;DHT22;13574;52.040;5.692;2022-08-25T05:23:22;25.30;88.20
25718;DHT22;13574;52.040;5.692;2022-08-25T05:25:49;25.50;88.40
25718;DHT22;13574;52.040;5.692;2022-08-25T05:28:16;25.40;88.20
25718;DHT22;13574;52.040;5.692;2022-08-25T05:30:42;25.50;88.40
25718;DHT22;13574;52.040;5.692;2022-08-25T05:33:10;25.40;88.10
25718;DHT22;13574;52.040;5.692;2022-08-25T05:35:36;25.30;88.40
25718;DHT22;13574;52.040;5.692;2022-08-25T05:38:02;25.40;88.40
25718;DHT22;13574;52.040;5.692;2022-08-25T05:40:29;25.60;87.90
25718;DHT22;13574;52.040;5.692;2022-08-25T05:42:54;25.70;87.70
25718;DHT22;13574;52.040;5.692;2022-08-25T05:45:20;25.70;87.60
25718;DHT22;13574;52.040;5.692;2022-08-25T05:47:47;25.60;88.00
25718;DHT22;13574;52.040;5.692;2022-08-25T05:50:13;25.80;87.80
25718;DHT22;13574;52.040;5.692;2022-08-25T05:52:39;25.90;87.70
25718;DHT22;13574;52.040;5.692;2022-08-25T05:55:06;26.10;87.50
25718;DHT22;13574;52.040;5.692;2022-08-25T05:57:32;26.10;87.00
25718;DHT22;13574;52.040;5.692;2022-08-25T05:59:58;26.10;86.70
25718;DHT22;13574;52.040;5.692;2022-08-25T06:02:24;26.20;87.00
25718;DHT22;13574;52.040;5.692;2022-08-25T06:05:09;26.30;87.00
25718;DHT22;13574;52.040;5.692;2022-08-25T06:07:35;26.40;86.50
25718;DHT22;13574;52.040;5.692;2022-08-25T06:10:03;26.50;86.60
25718;DHT22;13574;52.040;5.692;2022-08-25T06:12:29;26.30;86.90
25718;DHT22;13574;52.040;5.692;2022-08-25T06:14:57;26.50;86.50
25718;DHT22;13574;52.040;5.692;2022-08-25T06:17:22;26.60;86.90
25718;DHT22;13574;52.040;5.692;2022-08-25T06:19:48;26.60;87.00
25718;DHT22;13574;52.040;5.692;2022-08-25T06:22:14;26.70;86.70
25718;DHT22;13574;52.040;5.692;2022-08-25T06:24:39;26.80;86.90
25718;DHT22;13574;52.040;5.692;2022-08-25T06:27:05;26.80;86.30
25718;DHT22;13574;52.040;5.692;2022-08-25T06:29:31;26.80;85.90
25718;DHT22;13574;52.040;5.692;2022-08-25T06:31:57;26.80;85.90
25718;DHT22;13574;52.040;5.692;2022-08-25T06:34:22;27.00;86.10
25718;DHT22;13574;52.040;5.692;2022-08-25T06:36:48;27.30;85.00
25718;DHT22;13574;52.040;5.692;2022-08-25T06:39:15;27.60;84.40
25718;DHT22;13574;52.040;5.692;2022-08-25T06:41:40;27.50;83.90
25718;DHT22;13574;52.040;5.692;2022-08-25T06:44:06;27.50;83.00
25718;DHT22;13574;52.040;5.692;2022-08-25T06:46:33;27.40;82.70
25718;DHT22;13574;52.040;5.692;2022-08-25T06:48:58;27.60;83.20
25718;DHT22;13574;52.040;5.692;2022-08-25T06:51:25;27.70;82.30
25718;DHT22;13574;52.040;5.692;2022-08-25T06:53:51;27.70;82.10
25718;DHT22;13574;52.040;5.692;2022-08-25T06:56:19;27.80;81.80
25718;DHT22;13574;52.040;5.692;2022-08-25T06:58:46;28.20;81.30
25718;DHT22;13574;52.040;5.692;2022-08-25T07:01:15;27.90;81.20
25718;DHT22;13574;52.040;5.692;2022-08-25T07:03:42;28.00;81.10
25718;DHT22;13574;52.040;5.692;2022-08-25T07:06:08;28.30;81.10
25718;DHT22;13574;52.040;5.692;2022-08-25T07:08:34;28.50;80.40
25718;DHT22;13574;52.040;5.692;2022-08-25T07:11:05;28.70;80.50
25718;DHT22;13574;52.040;5.692;2022-08-25T07:13:31;28.80;80.00
25718;DHT22;13574;52.040;5.692;2022-08-25T07:15:57;29.20;79.50
25718;DHT22;13574;52.040;5.692;2022-08-25T07:18:23;30.50;77.30
25718;DHT22;13574;52.040;5.692;2022-08-25T07:20:48;32.10;74.60
25718;DHT22;13574;52.040;5.692;2022-08-25T07:23:16;33.60;72.80
25718;DHT22;13574;52.040;5.692;2022-08-25T07:25:42;34.40;69.50
25718;DHT22;13574;52.040;5.692;2022-08-25T07:28:08;34.10;69.00
25718;DHT22;13574;52.040;5.692;2022-08-25T07:30:34;33.50;68.60
25718;DHT22;13574;52.040;5.692;2022-08-25T07:32:59;33.10;70.00
25718;DHT22;13574;52.040;5.692;2022-08-25T07:35:25;32.70;70.00
25718;DHT22;13574;52.040;5.692;2022-08-25T07:37:54;32.30;70.80
25718;DHT22;13574;52.040;5.692;2022-08-25T07:42:51;32.10;71.10
25718;DHT22;13574;52.040;5.692;2022-08-25T07:45:18;32.20;71.00
25718;DHT22;13574;52.040;5.692;2022-08-25T07:47:44;32.50;71.00
25718;DHT22;13574;52.040;5.692;2022-08-25T07:50:10;32.90;71.20
25718;DHT22;13574;52.040;5.692;2022-08-25T07:52:38;33.00;69.30
25718;DHT22;13574;52.040;5.692;2022-08-25T07:55:04;32.80;70.40
25718;DHT22;13574;52.040;5.692;2022-08-25T07:57:30;33.40;70.00
25718;DHT22;13574;52.040;5.692;2022-08-25T07:59:56;35.00;69.10
25718;DHT22;13574;52.040;5.692;2022-08-25T08:02:23;36.70;65.90
25718;DHT22;13574;52.040;5.692;2022-08-25T08:04:51;37.70;63.50
25718;DHT22;13574;52.040;5.692;2022-08-25T08:07:19;39.00;62.40
25718;DHT22;13574;52.040;5.692;2022-08-25T08:09:46;40.50;59.80
25718;DHT22;13574;52.040;5.692;2022-08-25T08:12:12;41.70;57.70
25718;DHT22;13574;52.040;5.692;2022-08-25T08:14:38;41.70;56.50
25718;DHT22;13574;52.040;5.692;2022-08-25T08:17:06;41.70;55.80
25718;DHT22;13574;52.040;5.692;2022-08-25T08:19:32;42.50;55.70
25718;DHT22;13574;52.040;5.692;2022-08-25T08:21:59;42.60;54.70
25718;DHT22;13574;52.040;5.692;2022-08-25T08:24:30;42.80;54.30
25718;DHT22;13574;52.040;5.692;2022-08-25T08:26:59;43.00;54.20
25718;DHT22;13574;52.040;5.692;2022-08-25T08:29:44;44.00;53.20
25718;DHT22;13574;52.040;5.692;2022-08-25T08:32:18;45.00;52.40
25718;DHT22;13574;52.040;5.692;2022-08-25T08:34:44;45.80;51.50
25718;DHT22;13574;52.040;5.692;2022-08-25T08:37:10;46.60;51.80
25718;DHT22;13574;52.040;5.692;2022-08-25T08:39:36;46.20;50.70
25718;DHT22;13574;52.040;5.692;2022-08-25T08:42:22;46.10;51.10
25718;DHT22;13574;52.040;5.692;2022-08-25T08:55:36;45.70;49.80
25718;DHT22;13574;52.040;5.692;2022-08-25T08:58:11;45.00;50.60
25718;DHT22;13574;52.040;5.692;2022-08-25T09:00:45;43.60;51.00
25718;DHT22;13574;52.040;5.692;2022-08-25T09:06:02;40.30;54.70
25718;DHT22;13574;52.040;5.692;2022-08-25T09:08:30;38.80;56.30
25718;DHT22;13574;52.040;5.692;2022-08-25T09:11:06;38.10;57.70
25718;DHT22;13574;52.040;5.692;2022-08-25T09:16:28;37.50;60.00
25718;DHT22;13574;52.040;5.692;2022-08-25T09:22:08;36.90;60.80
25718;DHT22;13574;52.040;5.692;2022-08-25T09:27:22;36.90;60.40
25718;DHT22;13574;52.040;5.692;2022-08-25T09:32:53;36.80;60.80
25718;DHT22;13574;52.040;5.692;2022-08-25T09:35:31;36.50;61.90
25718;DHT22;13574;52.040;5.692;2022-08-25T09:40:30;35.90;59.60
25718;DHT22;13574;52.040;5.692;2022-08-25T09:42:58;35.90;61.10
25718;DHT22;13574;52.040;5.692;2022-08-25T09:45:36;35.60;60.80
25718;DHT22;13574;52.040;5.692;2022-08-25T09:48:29;35.50;60.70
25718;DHT22;13574;52.040;5.692;2022-08-25T09:51:11;35.60;59.90
25718;DHT22;13574;52.040;5.692;2022-08-25T09:56:19;35.50;61.00
25718;DHT22;13574;52.040;5.692;2022-08-25T09:58:46;35.40;61.00
25718;DHT22;13574;52.040;5.692;2022-08-25T10:03:57;35.30;60.10
25718;DHT22;13574;52.040;5.692;2022-08-25T10:06:26;35.30;58.90
25718;DHT22;13574;52.040;5.692;2022-08-25T10:08:58;35.30;59.30
25718;DHT22;13574;52.040;5.692;2022-08-25T10:11:43;35.30;59.60
25718;DHT22;13574;52.040;5.692;2022-08-25T10:16:50;35.30;59.00
25718;DHT22;13574;52.040;5.692;2022-08-25T10:19:30;35.10;58.20
25718;DHT22;13574;52.040;5.692;2022-08-25T10:22:23;35.10;57.50
25718;DHT22;13574;52.040;5.692;2022-08-25T10:24:51;35.10;58.20
25718;DHT22;13574;52.040;5.692;2022-08-25T10:30:07;35.40;58.00
25718;DHT22;13574;52.040;5.692;2022-08-25T10:35:35;36.00;58.70
25718;DHT22;13574;52.040;5.692;2022-08-25T10:40:55;36.50;58.00
25718;DHT22;13574;52.040;5.692;2022-08-25T10:43:32;36.50;57.60
25718;DHT22;13574;52.040;5.692;2022-08-25T10:46:11;36.50;58.10
25718;DHT22;13574;52.040;5.692;2022-08-25T10:49:07;36.20;57.60
25718;DHT22;13574;52.040;5.692;2022-08-25T10:52:00;36.40;59.10
25718;DHT22;13574;52.040;5.692;2022-08-25T10:54:42;36.40;57.80
25718;DHT22;13574;52.040;5.692;2022-08-25T11:00:05;36.40;59.50
25718;DHT22;13574;52.040;5.692;2022-08-25T11:02:46;36.60;58.70
25718;DHT22;13574;52.040;5.692;2022-08-25T11:07:53;36.50;58.60
25718;DHT22;13574;52.040;5.692;2022-08-25T11:10:50;36.70;59.30
25718;DHT22;13574;52.040;5.692;2022-08-25T11:13:29;36.80;58.10
25718;DHT22;13574;52.040;5.692;2022-08-25T11:19:18;36.40;57.30
25718;DHT22;13574;52.040;5.692;2022-08-25T11:26:53;36.10;57.40
25718;DHT22;13574;52.040;5.692;2022-08-25T11:29:21;36.00;58.00
25718;DHT22;13574;52.040;5.692;2022-08-25T11:31:51;36.30;60.00
25718;DHT22;13574;52.040;5.692;2022-08-25T11:34:18;36.30;58.10
25718;DHT22;13574;52.040;5.692;2022-08-25T11:36:54;36.30;59.40
25718;DHT22;13574;52.040;5.692;2022-08-25T11:39:43;36.30;58.10
25718;DHT22;13574;52.040;5.692;2022-08-25T11:53:35;36.20;58.80
25718;DHT22;13574;52.040;5.692;2022-08-25T11:56:12;35.80;58.10
25718;DHT22;13574;52.040;5.692;2022-08-25T11:58:55;35.90;58.40
25718;DHT22;13574;52.040;5.692;2022-08-25T12:04:30;36.00;57.50
25718;DHT22;13574;52.040;5.692;2022-08-25T12:12:31;35.70;58.20
25718;DHT22;13574;52.040;5.692;2022-08-25T12:15:22;35.80;58.60
25718;DHT22;13574;52.040;5.692;2022-08-25T12:23:31;36.20;58.50
25718;DHT22;13574;52.040;5.692;2022-08-25T12:26:03;36.20;58.20
25718;DHT22;13574;52.040;5.692;2022-08-25T12:31:14;36.50;58.20
25718;DHT22;13574;52.040;5.692;2022-08-25T12:34:15;36.20;57.70
25718;DHT22;13574;52.040;5.692;2022-08-25T12:37:24;36.40;58.20
25718;DHT22;13574;52.040;5.692;2022-08-25T12:40:27;36.30;57.10
25718;DHT22;13574;52.040;5.692;2022-08-25T12:43:08;36.30;57.50
25718;DHT22;13574;52.040;5.692;2022-08-25T12:45:49;36.30;58.30
25718;DHT22;13574;52.040;5.692;2022-08-25T12:51:06;36.20;58.20
25718;DHT22;13574;52.040;5.692;2022-08-25T12:56:07;36.00;58.90
25718;DHT22;13574;52.040;5.692;2022-08-25T12:58:47;36.10;58.40
25718;DHT22;13574;52.040;5.692;2022-08-25T13:01:21;36.10;57.80
25718;DHT22;13574;52.040;5.692;2022-08-25T13:09:23;36.10;58.20
25718;DHT22;13574;52.040;5.692;2022-08-25T13:12:19;36.30;58.10
25718;DHT22;13574;52.040;5.692;2022-08-25T13:14:54;36.40;58.70
25718;DHT22;13574;52.040;5.692;2022-08-25T13:17:35;36.30;57.80
25718;DHT22;13574;52.040;5.692;2022-08-25T13:20:14;36.40;57.80
25718;DHT22;13574;52.040;5.692;2022-08-25T13:22:49;36.50;58.20
25718;DHT22;13574;52.040;5.692;2022-08-25T13:25:38;36.50;57.50
25718;DHT22;13574;52.040;5.692;2022-08-25T13:28:29;36.20;57.80
25718;DHT22;13574;52.040;5.692;2022-08-25T13:31:08;36.00;58.20
25718;DHT22;13574;52.040;5.692;2022-08-25T13:34:14;35.90;58.40
25718;DHT22;13574;52.040;5.692;2022-08-25T13:42:16;36.10;58.70
25718;DHT22;13574;52.040;5.692;2022-08-25T13:44:42;36.10;58.70
25718;DHT22;13574;52.040;5.692;2022-08-25T13:47:37;36.20;58.00
25718;DHT22;13574;52.040;5.692;2022-08-25T13:53:46;36.30;58.20
25718;DHT22;13574;52.040;5.692;2022-08-25T13:55:54;36.30;58.40
25718;DHT22;13574;52.040;5.692;2022-08-25T13:58:28;36.20;57.80
25718;DHT22;13574;52.040;5.692;2022-08-25T14:01:14;36.20;58.00
25718;DHT22;13574;52.040;5.692;2022-08-25T14:03:54;36.10;57.70
25718;DHT22;13574;52.040;5.692;2022-08-25T14:06:37;36.20;57.50
25718;DHT22;13574;52.040;5.692;2022-08-25T14:09:07;36.20;58.10
25718;DHT22;13574;52.040;5.692;2022-08-25T14:11:45;36.10;57.90
25718;DHT22;13574;52.040;5.692;2022-08-25T14:16:58;36.10;57.70
25718;DHT22;13574;52.040;5.692;2022-08-25T14:19:29;35.90;57.50
25718;DHT22;13574;52.040;5.692;2022-08-25T14:22:06;36.00;58.70
25718;DHT22;13574;52.040;5.692;2022-08-25T14:24:35;35.90;57.60
25718;DHT22;13574;52.040;5.692;2022-08-25T14:27:12;35.90;57.30
25718;DHT22;13574;52.040;5.692;2022-08-25T14:29:44;35.70;58.30
25718;DHT22;13574;52.040;5.692;2022-08-25T14:32:19;35.90;57.80
25718;DHT22;13574;52.040;5.692;2022-08-25T14:34:45;35.90;58.20
25718;DHT22;13574;52.040;5.692;2022-08-25T14:37:18;35.80;58.00
25718;DHT22;13574;52.040;5.692;2022-08-25T14:39:49;35.80;58.50
25718;DHT22;13574;52.040;5.692;2022-08-25T14:42:25;35.70;58.30
25718;DHT22;13574;52.040;5.692;2022-08-25T14:44:50;35.50;58.10
25718;DHT22;13574;52.040;5.692;2022-08-25T14:47:16;35.50;58.60
25718;DHT22;13574;52.040;5.692;2022-08-25T14:49:46;35.50;58.30
25718;DHT22;13574;52.040;5.692;2022-08-25T14:52:32;35.40;58.50
25718;DHT22;13574;52.040;5.692;2022-08-25T14:55:04;35.40;59.50
25718;DHT22;13574;52.040;5.692;2022-08-25T14:57:50;35.40;59.40
25718;DHT22;13574;52.040;5.692;2022-08-25T15:00:24;35.60;59.30
25718;DHT22;13574;52.040;5.692;2022-08-25T15:09:17;36.10;58.50
25718;DHT22;13574;52.040;5.692;2022-08-25T15:11:46;36.10;58.40
25718;DHT22;13574;52.040;5.692;2022-08-25T15:14:17;36.30;58.60
25718;DHT22;13574;52.040;5.692;2022-08-25T15:20:00;36.30;57.90
25718;DHT22;13574;52.040;5.692;2022-08-25T15:22:29;36.20;58.30
25718;DHT22;13574;52.040;5.692;2022-08-25T15:25:08;36.20;58.80
25718;DHT22;13574;52.040;5.692;2022-08-25T15:27:56;36.30;58.90
25718;DHT22;13574;52.040;5.692;2022-08-25T15:30:25;36.30;58.70
25718;DHT22;13574;52.040;5.692;2022-08-25T15:32:54;36.20;58.00
25718;DHT22;13574;52.040;5.692;2022-08-25T15:35:40;36.30;58.20
25718;DHT22;13574;52.040;5.692;2022-08-25T15:38:08;36.40;58.40
25718;DHT22;13574;52.040;5.692;2022-08-25T15:40:45;36.30;58.40
25718;DHT22;13574;52.040;5.692;2022-08-25T15:46:14;36.40;57.40
25718;DHT22;13574;52.040;5.692;2022-08-25T15:48:56;36.50;57.70
25718;DHT22;13574;52.040;5.692;2022-08-25T15:51:43;36.50;58.10
25718;DHT22;13574;52.040;5.692;2022-08-25T15:54:10;36.40;57.60
25718;DHT22;13574;52.040;5.692;2022-08-25T15:56:35;36.40;57.90
25718;DHT22;13574;52.040;5.692;2022-08-25T15:59:04;36.40;57.90
25718;DHT22;13574;52.040;5.692;2022-08-25T16:01:41;36.50;58.00
25718;DHT22;13574;52.040;5.692;2022-08-25T16:04:15;36.50;58.00
25718;DHT22;13574;52.040;5.692;2022-08-25T16:06:53;36.50;57.50
25718;DHT22;13574;52.040;5.692;2022-08-25T16:09:22;36.40;57.30
25718;DHT22;13574;52.040;5.692;2022-08-25T16:11:48;36.40;56.90
25718;DHT22;13574;52.040;5.692;2022-08-25T16:14:16;36.10;57.50
25718;DHT22;13574;52.040;5.692;2022-08-25T16:16:44;36.10;57.80
25718;DHT22;13574;52.040;5.692;2022-08-25T16:19:40;36.30;57.80
25718;DHT22;13574;52.040;5.692;2022-08-25T16:25:32;36.40;58.50
25718;DHT22;13574;52.040;5.692;2022-08-25T16:28:13;36.40;58.60
25718;DHT22;13574;52.040;5.692;2022-08-25T16:30:48;36.40;58.90
25718;DHT22;13574;52.040;5.692;2022-08-25T16:33:20;36.40;58.10
25718;DHT22;13574;52.040;5.692;2022-08-25T16:35:49;36.40;58.30
25718;DHT22;13574;52.040;5.692;2022-08-25T16:38:18;36.20;58.60
25718;DHT22;13574;52.040;5.692;2022-08-25T16:40:44;36.20;58.50
25718;DHT22;13574;52.040;5.692;2022-08-25T16:43:11;35.90;58.30
25718;DHT22;13574;52.040;5.692;2022-08-25T16:45:37;35.90;58.50
25718;DHT22;13574;52.040;5.692;2022-08-25T16:48:05;35.90;58.80
25718;DHT22;13574;52.040;5.692;2022-08-25T16:50:30;35.80;59.50
25718;DHT22;13574;52.040;5.692;2022-08-25T16:52:59;35.80;59.60
25718;DHT22;13574;52.040;5.692;2022-08-25T16:55:50;35.80;59.40
25718;DHT22;13574;52.040;5.692;2022-08-25T16:58:26;35.80;59.90
25718;DHT22;13574;52.040;5.692;2022-08-25T17:00:54;35.70;60.30
25718;DHT22;13574;52.040;5.692;2022-08-25T17:03:39;35.60;60.40
25718;DHT22;13574;52.040;5.692;2022-08-25T17:06:07;35.60;60.00
25718;DHT22;13574;52.040;5.692;2022-08-25T17:08:35;35.50;59.50
25718;DHT22;13574;52.040;5.692;2022-08-25T17:11:05;35.50;59.40
25718;DHT22;13574;52.040;5.692;2022-08-25T17:13:40;35.40;59.80
25718;DHT22;13574;52.040;5.692;2022-08-25T17:16:20;35.40;60.00
25718;DHT22;13574;52.040;5.692;2022-08-25T17:18:47;35.30;60.00
25718;DHT22;13574;52.040;5.692;2022-08-25T17:21:15;35.30;60.60
25718;DHT22;13574;52.040;5.692;2022-08-25T17:23:42;35.20;61.10
25718;DHT22;13574;52.040;5.692;2022-08-25T17:26:14;35.00;61.30
25718;DHT22;13574;52.040;5.692;2022-08-25T17:28:40;35.10;61.30
25718;DHT22;13574;52.040;5.692;2022-08-25T17:31:07;35.00;62.30
25718;DHT22;13574;52.040;5.692;2022-08-25T17:33:33;35.00;62.90
25718;DHT22;13574;52.040;5.692;2022-08-25T17:35:59;34.90;63.10
25718;DHT22;13574;52.040;5.692;2022-08-25T17:38:26;34.90;63.20
25718;DHT22;13574;52.040;5.692;2022-08-25T17:40:53;34.90;63.00
25718;DHT22;13574;52.040;5.692;2022-08-25T17:43:20;34.80;63.00
25718;DHT22;13574;52.040;5.692;2022-08-25T17:45:47;34.70;63.10
25718;DHT22;13574;52.040;5.692;2022-08-25T17:48:12;34.60;63.50
25718;DHT22;13574;52.040;5.692;2022-08-25T17:50:39;34.50;62.80
25718;DHT22;13574;52.040;5.692;2022-08-25T17:53:07;34.40;63.40
25718;DHT22;13574;52.040;5.692;2022-08-25T17:55:33;34.30;63.40
25718;DHT22;13574;52.040;5.692;2022-08-25T17:57:59;34.30;63.70
25718;DHT22;13574;52.040;5.692;2022-08-25T18:00:28;34.20;64.80
25718;DHT22;13574;52.040;5.692;2022-08-25T18:02:57;34.20;65.90